createdAt,value
2023-03-22T00:01:45.793Z,7.85
2023-03-22T00:06:47.287Z,9.00
2023-03-22T00:11:48.827Z,11.40
2023-03-22T00:16:50.306Z,7.93
2023-03-22T00:21:51.847Z,16.08
2023-03-22T00:26:53.383Z,12.10
2023-03-22T00:31:54.933Z,11.90
2023-03-22T00:36:56.473Z,13.38
2023-03-22T00:41:58.163Z,8.55
2023-03-22T00:46:59.715Z,10.60
2023-03-22T00:52:01.233Z,11.68
2023-03-22T00:57:02.882Z,9.68
2023-03-22T01:02:05.213Z,11.93
2023-03-22T01:07:06.885Z,11.35
2023-03-22T01:12:10.816Z,15.90
2023-03-22T01:17:12.453Z,11.32
2023-03-22T01:22:14.027Z,11.48
2023-03-22T01:27:16.382Z,12.18
2023-03-22T01:32:17.890Z,12.38
2023-03-22T01:37:19.604Z,13.00
2023-03-22T01:42:24.534Z,16.50
2023-03-22T01:47:27.600Z,11.23
2023-03-22T01:52:29.320Z,14.02
2023-03-22T01:57:44.683Z,12.38
2023-03-22T02:03:06.142Z,16.50
2023-03-22T02:08:18.422Z,11.48
2023-03-22T02:13:50.766Z,12.70
2023-03-22T02:19:39.547Z,11.00
2023-03-22T02:25:03.088Z,23.02
2023-03-22T02:30:26.560Z,12.30
2023-03-22T02:35:31.112Z,12.95
2023-03-22T02:40:50.364Z,18.48
2023-03-22T02:46:04.445Z,12.45
2023-03-22T02:51:16.028Z,13.15
2023-03-22T02:56:44.407Z,11.52
2023-03-22T03:01:50.828Z,12.07
2023-03-22T03:06:55.566Z,15.35
2023-03-22T03:11:57.336Z,13.57
2023-03-22T03:16:58.865Z,16.42
2023-03-22T03:22:29.808Z,15.77
2023-03-22T03:27:56.432Z,16.42
2023-03-22T03:33:07.855Z,12.23
2023-03-22T03:38:15.504Z,15.50
2023-03-22T03:48:23.131Z,16.15
2023-03-22T03:53:24.975Z,21.25
2023-03-22T03:58:26.650Z,18.75
2023-03-22T04:03:28.234Z,24.08
2023-03-22T04:08:52.521Z,30.60
2023-03-22T04:13:57.086Z,22.10
2023-03-22T04:18:58.811Z,17.77
2023-03-22T04:24:00.812Z,20.83
2023-03-22T04:29:06.262Z,22.92
2023-03-22T04:34:10.609Z,15.77
2023-03-22T04:39:24.243Z,17.70
2023-03-22T04:44:44.251Z,19.13
2023-03-22T04:49:46.496Z,17.35
2023-03-22T04:54:50.136Z,19.52
2023-03-22T04:59:52.540Z,25.58
2023-03-22T05:04:55.619Z,16.63
2023-03-22T05:10:10.999Z,20.75
2023-03-22T05:15:14.044Z,20.80
2023-03-22T05:20:16.617Z,17.67
2023-03-22T05:25:23.546Z,16.40
2023-03-22T05:30:25.460Z,17.20
2023-03-22T05:35:34.978Z,15.77
2023-03-22T05:40:38.169Z,19.48
2023-03-22T05:45:40.273Z,10.88
2023-03-22T05:51:15.674Z,14.32
2023-03-22T05:56:17.896Z,14.52
2023-03-22T06:01:21.282Z,16.75
2023-03-22T06:06:22.815Z,13.20
2023-03-22T06:11:40.782Z,10.68
2023-03-22T06:16:43.166Z,10.93
2023-03-22T06:21:45.120Z,12.00
2023-03-22T06:26:49.635Z,9.55
2023-03-22T06:31:51.300Z,9.95
2023-03-22T06:36:53.672Z,7.55
2023-03-22T06:42:03.776Z,10.75
2023-03-22T06:47:06.109Z,10.75
2023-03-22T06:52:40.157Z,10.98
2023-03-22T06:57:42.862Z,12.02
2023-03-22T07:02:44.443Z,10.27
2023-03-22T07:08:12.254Z,13.15
2023-03-22T07:13:19.996Z,9.02
2023-03-22T07:18:23.813Z,10.55
2023-03-22T07:23:25.557Z,10.52
2023-03-22T07:28:30.975Z,8.60
2023-03-22T07:33:34.225Z,5.85
2023-03-22T07:38:37.110Z,6.72
2023-03-22T07:43:54.013Z,6.57
2023-03-22T07:48:58.524Z,6.13
2023-03-22T07:54:34.111Z,5.55
2023-03-22T07:59:40.080Z,5.53
2023-03-22T08:04:44.261Z,3.72
2023-03-22T08:10:09.301Z,7.50
2023-03-22T08:15:11.772Z,3.88
2023-03-22T08:20:13.494Z,4.18
2023-03-22T08:25:23.081Z,3.10
2023-03-22T08:30:25.899Z,3.10
2023-03-22T08:35:28.283Z,3.75
2023-03-22T08:40:29.978Z,5.68
2023-03-22T08:45:35.213Z,3.60
2023-03-22T08:50:43.945Z,5.25
2023-03-22T08:55:55.481Z,3.95
2023-03-22T09:01:11.832Z,8.20
2023-03-22T09:11:26.387Z,2.53
2023-03-22T09:16:27.951Z,3.78
2023-03-22T09:21:30.218Z,2.45
2023-03-22T09:26:41.891Z,2.40
2023-03-22T09:31:43.614Z,1.88
2023-03-22T09:36:51.422Z,1.77
2023-03-22T09:41:59.352Z,3.50
2023-03-22T09:47:04.746Z,2.45
2023-03-22T09:52:13.957Z,4.68
2023-03-22T09:57:21.494Z,3.83
2023-03-22T10:02:37.509Z,1.48
2023-03-22T10:08:06.739Z,4.78
2023-03-22T10:13:17.417Z,2.05
2023-03-22T10:18:26.819Z,1.83
2023-03-22T10:23:53.796Z,3.35
2023-03-22T10:29:02.764Z,0.90
2023-03-22T10:34:20.108Z,3.20
2023-03-22T10:44:49.340Z,1.58
2023-03-22T10:49:54.160Z,2.22
2023-03-22T10:55:00.166Z,3.38
2023-03-22T11:00:04.927Z,1.95
2023-03-22T11:05:06.853Z,4.72
2023-03-22T11:10:08.350Z,1.80
2023-03-22T11:15:32.553Z,3.42
2023-03-22T11:20:34.711Z,2.50
2023-03-22T11:25:44.754Z,2.08
2023-03-22T11:31:06.865Z,3.30
2023-03-22T11:36:18.624Z,6.00
2023-03-22T11:41:23.544Z,6.10
2023-03-22T11:46:25.723Z,3.10
2023-03-22T11:51:33.564Z,2.00
2023-03-22T11:56:39.841Z,2.75
2023-03-22T12:01:59.630Z,2.20
2023-03-22T12:07:05.652Z,4.00
2023-03-22T12:12:14.252Z,3.60
2023-03-22T12:17:35.493Z,3.45
2023-03-22T12:22:40.565Z,1.40
2023-03-22T12:27:47.407Z,4.50
2023-03-22T12:33:29.074Z,3.35
2023-03-22T12:38:43.970Z,4.72
2023-03-22T12:43:55.677Z,2.00
2023-03-22T12:49:33.067Z,2.75
2023-03-22T12:54:35.400Z,3.22
2023-03-22T12:59:37.839Z,2.67
2023-03-22T13:04:39.309Z,2.92
2023-03-22T13:09:48.706Z,4.80
2023-03-22T13:14:50.240Z,3.28
2023-03-22T13:19:58.491Z,3.80
2023-03-22T13:25:06.131Z,4.70
2023-03-22T13:30:32.454Z,2.53
2023-03-22T13:41:06.485Z,4.35
2023-03-22T13:46:27.666Z,2.22
2023-03-22T13:51:31.799Z,2.72
2023-03-22T13:56:42.508Z,4.65
2023-03-22T14:01:52.730Z,4.20
2023-03-22T14:06:59.976Z,5.28
2023-03-22T14:12:13.382Z,3.10
2023-03-22T14:17:42.563Z,2.72
